sensor_id;sensor_type;location;lat;lon;timestamp;P1;durP1;ratioP1;P2;durP2;ratioP2
27225;SDS011;14732;51.074;3.788;2023-10-08T05:36:36;14.98;;;5.57;;
27225;SDS011;14732;51.074;3.788;2023-10-08T05:39:20;10.68;;;5.45;;
27225;SDS011;14732;51.074;3.788;2023-10-08T05:42:03;11.05;;;5.10;;
27225;SDS011;14732;51.074;3.788;2023-10-08T05:44:40;12.00;;;5.40;;
27225;SDS011;14732;51.074;3.788;2023-10-08T05:47:12;14.18;;;5.57;;
27225;SDS011;14732;51.074;3.788;2023-10-08T05:49:44;12.15;;;5.80;;
27225;SDS011;14732;51.074;3.788;2023-10-08T05:52:30;9.60;;;5.60;;
27225;SDS011;14732;51.074;3.788;2023-10-08T05:55:15;11.68;;;6.00;;
27225;SDS011;14732;51.074;3.788;2023-10-08T05:57:55;11.07;;;5.50;;
27225;SDS011;14732;51.074;3.788;2023-10-08T06:00:43;15.38;;;6.32;;
27225;SDS011;14732;51.074;3.788;2023-10-08T06:03:19;12.02;;;5.53;;
27225;SDS011;14732;51.074;3.788;2023-10-08T06:06:05;14.82;;;6.50;;
27225;SDS011;14732;51.074;3.788;2023-10-08T06:08:53;15.07;;;6.20;;
27225;SDS011;14732;51.074;3.788;2023-10-08T06:11:46;12.82;;;6.18;;
27225;SDS011;14732;51.074;3.788;2023-10-08T06:14:33;11.15;;;5.93;;
27225;SDS011;14732;51.074;3.788;2023-10-08T06:17:17;11.68;;;6.07;;
27225;SDS011;14732;51.074;3.788;2023-10-08T06:20:00;10.63;;;5.65;;
27225;SDS011;14732;51.074;3.788;2023-10-08T06:22:34;13.07;;;6.38;;
27225;SDS011;14732;51.074;3.788;2023-10-08T06:25:00;14.70;;;6.03;;
27225;SDS011;14732;51.074;3.788;2023-10-08T06:27:42;9.95;;;5.65;;
27225;SDS011;14732;51.074;3.788;2023-10-08T06:30:10;12.13;;;6.03;;
27225;SDS011;14732;51.074;3.788;2023-10-08T06:32:41;11.32;;;5.75;;
27225;SDS011;14732;51.074;3.788;2023-10-08T06:35:09;14.98;;;5.68;;
27225;SDS011;14732;51.074;3.788;2023-10-08T06:37:42;13.35;;;6.35;;
27225;SDS011;14732;51.074;3.788;2023-10-08T06:40:10;13.07;;;5.68;;
27225;SDS011;14732;51.074;3.788;2023-10-08T06:42:56;11.68;;;5.78;;
27225;SDS011;14732;51.074;3.788;2023-10-08T06:45:27;16.63;;;6.25;;
27225;SDS011;14732;51.074;3.788;2023-10-08T06:47:57;11.00;;;6.50;;
27225;SDS011;14732;51.074;3.788;2023-10-08T06:50:23;10.15;;;6.00;;
27225;SDS011;14732;51.074;3.788;2023-10-08T06:52:49;15.02;;;6.60;;
27225;SDS011;14732;51.074;3.788;2023-10-08T06:55:14;18.20;;;6.55;;
27225;SDS011;14732;51.074;3.788;2023-10-08T06:57:42;14.63;;;6.85;;
27225;SDS011;14732;51.074;3.788;2023-10-08T07:00:08;12.60;;;5.65;;
27225;SDS011;14732;51.074;3.788;2023-10-08T07:02:57;16.97;;;6.10;;
27225;SDS011;14732;51.074;3.788;2023-10-08T07:05:22;14.85;;;5.97;;
27225;SDS011;14732;51.074;3.788;2023-10-08T07:07:48;13.95;;;6.50;;
27225;SDS011;14732;51.074;3.788;2023-10-08T07:12:44;16.83;;;6.20;;
27225;SDS011;14732;51.074;3.788;2023-10-08T07:15:11;16.08;;;6.55;;
27225;SDS011;14732;51.074;3.788;2023-10-08T07:17:39;12.23;;;6.47;;
27225;SDS011;14732;51.074;3.788;2023-10-08T07:20:08;10.38;;;6.30;;
27225;SDS011;14732;51.074;3.788;2023-10-08T07:25:19;15.57;;;6.07;;
27225;SDS011;14732;51.074;3.788;2023-10-08T07:27:46;13.25;;;6.68;;
27225;SDS011;14732;51.074;3.788;2023-10-08T07:30:12;11.50;;;5.50;;
27225;SDS011;14732;51.074;3.788;2023-10-08T07:32:38;16.27;;;6.28;;
27225;SDS011;14732;51.074;3.788;2023-10-08T07:35:05;16.30;;;6.68;;
27225;SDS011;14732;51.074;3.788;2023-10-08T07:37:48;14.38;;;6.60;;
27225;SDS011;14732;51.074;3.788;2023-10-08T07:40:14;19.17;;;6.82;;
27225;SDS011;14732;51.074;3.788;2023-10-08T07:42:40;11.85;;;6.55;;
27225;SDS011;14732;51.074;3.788;2023-10-08T07:45:05;10.80;;;5.82;;
27225;SDS011;14732;51.074;3.788;2023-10-08T07:47:32;12.80;;;6.22;;
27225;SDS011;14732;51.074;3.788;2023-10-08T07:49:57;11.98;;;6.40;;
27225;SDS011;14732;51.074;3.788;2023-10-08T07:52:24;9.52;;;5.50;;
27225;SDS011;14732;51.074;3.788;2023-10-08T07:54:50;14.52;;;6.72;;
27225;SDS011;14732;51.074;3.788;2023-10-08T07:57:15;14.07;;;6.78;;
27225;SDS011;14732;51.074;3.788;2023-10-08T07:59:51;14.93;;;6.75;;
27225;SDS011;14732;51.074;3.788;2023-10-08T08:02:19;11.25;;;6.88;;
27225;SDS011;14732;51.074;3.788;2023-10-08T08:04:51;12.60;;;6.97;;
27225;SDS011;14732;51.074;3.788;2023-10-08T08:07:18;13.98;;;6.78;;
27225;SDS011;14732;51.074;3.788;2023-10-08T08:09:48;31.77;;;7.97;;
27225;SDS011;14732;51.074;3.788;2023-10-08T08:12:17;14.80;;;7.43;;
27225;SDS011;14732;51.074;3.788;2023-10-08T08:14:44;14.63;;;6.93;;
27225;SDS011;14732;51.074;3.788;2023-10-08T08:17:10;16.80;;;7.72;;
27225;SDS011;14732;51.074;3.788;2023-10-08T08:19:42;15.73;;;6.95;;
27225;SDS011;14732;51.074;3.788;2023-10-08T08:22:15;12.55;;;7.55;;
27225;SDS011;14732;51.074;3.788;2023-10-08T08:24:52;13.93;;;7.30;;
27225;SDS011;14732;51.074;3.788;2023-10-08T08:27:28;16.98;;;7.78;;
27225;SDS011;14732;51.074;3.788;2023-10-08T08:29:56;18.35;;;7.78;;
27225;SDS011;14732;51.074;3.788;2023-10-08T08:32:38;17.17;;;7.95;;
27225;SDS011;14732;51.074;3.788;2023-10-08T08:37:37;16.10;;;7.22;;
27225;SDS011;14732;51.074;3.788;2023-10-08T08:40:06;13.32;;;7.18;;
27225;SDS011;14732;51.074;3.788;2023-10-08T08:42:44;17.25;;;7.72;;
27225;SDS011;14732;51.074;3.788;2023-10-08T08:45:16;12.95;;;6.95;;
27225;SDS011;14732;51.074;3.788;2023-10-08T08:47:53;16.08;;;7.57;;
27225;SDS011;14732;51.074;3.788;2023-10-08T08:50:20;18.77;;;7.38;;
27225;SDS011;14732;51.074;3.788;2023-10-08T08:52:46;13.65;;;6.75;;
27225;SDS011;14732;51.074;3.788;2023-10-08T08:55:12;16.13;;;6.95;;
27225;SDS011;14732;51.074;3.788;2023-10-08T08:57:41;18.50;;;7.32;;
27225;SDS011;14732;51.074;3.788;2023-10-08T09:00:09;13.75;;;6.15;;
27225;SDS011;14732;51.074;3.788;2023-10-08T09:02:40;15.85;;;6.88;;
27225;SDS011;14732;51.074;3.788;2023-10-08T09:05:06;17.10;;;7.28;;
27225;SDS011;14732;51.074;3.788;2023-10-08T09:08:02;17.52;;;7.55;;
27225;SDS011;14732;51.074;3.788;2023-10-08T09:10:30;15.95;;;7.20;;
27225;SDS011;14732;51.074;3.788;2023-10-08T09:13:02;13.00;;;6.57;;
27225;SDS011;14732;51.074;3.788;2023-10-08T09:15:29;17.23;;;7.45;;
27225;SDS011;14732;51.074;3.788;2023-10-08T09:17:57;16.38;;;7.50;;
27225;SDS011;14732;51.074;3.788;2023-10-08T09:20:29;16.35;;;7.18;;
27225;SDS011;14732;51.074;3.788;2023-10-08T09:23:06;12.55;;;6.70;;
27225;SDS011;14732;51.074;3.788;2023-10-08T09:25:33;14.15;;;7.13;;
27225;SDS011;14732;51.074;3.788;2023-10-08T09:27:59;17.08;;;7.57;;
27225;SDS011;14732;51.074;3.788;2023-10-08T09:30:25;15.10;;;7.40;;
27225;SDS011;14732;51.074;3.788;2023-10-08T09:32:54;18.45;;;8.02;;
27225;SDS011;14732;51.074;3.788;2023-10-08T09:35:20;19.27;;;7.95;;
27225;SDS011;14732;51.074;3.788;2023-10-08T09:37:49;16.70;;;7.75;;
27225;SDS011;14732;51.074;3.788;2023-10-08T09:40:16;17.75;;;7.90;;
27225;SDS011;14732;51.074;3.788;2023-10-08T09:42:46;19.30;;;7.75;;
27225;SDS011;14732;51.074;3.788;2023-10-08T09:45:13;17.13;;;8.32;;
27225;SDS011;14732;51.074;3.788;2023-10-08T09:47:38;18.25;;;8.45;;
27225;SDS011;14732;51.074;3.788;2023-10-08T09:50:11;23.45;;;8.45;;
27225;SDS011;14732;51.074;3.788;2023-10-08T09:53:00;19.90;;;7.80;;
27225;SDS011;14732;51.074;3.788;2023-10-08T09:55:33;22.45;;;8.23;;
27225;SDS011;14732;51.074;3.788;2023-10-08T09:57:58;22.77;;;7.93;;
27225;SDS011;14732;51.074;3.788;2023-10-08T10:00:25;18.83;;;8.23;;
27225;SDS011;14732;51.074;3.788;2023-10-08T10:02:59;18.83;;;7.85;;
27225;SDS011;14732;51.074;3.788;2023-10-08T10:05:29;16.60;;;8.65;;
27225;SDS011;14732;51.074;3.788;2023-10-08T10:07:55;20.25;;;7.90;;
27225;SDS011;14732;51.074;3.788;2023-10-08T10:10:25;15.02;;;7.57;;
27225;SDS011;14732;51.074;3.788;2023-10-08T10:13:00;18.48;;;7.85;;
27225;SDS011;14732;51.074;3.788;2023-10-08T10:15:28;15.10;;;8.40;;
27225;SDS011;14732;51.074;3.788;2023-10-08T10:17:58;19.27;;;8.30;;
27225;SDS011;14732;51.074;3.788;2023-10-08T10:20:32;17.65;;;8.05;;
27225;SDS011;14732;51.074;3.788;2023-10-08T10:22:59;19.20;;;7.28;;
27225;SDS011;14732;51.074;3.788;2023-10-08T10:25:33;22.35;;;8.48;;
27225;SDS011;14732;51.074;3.788;2023-10-08T10:30:32;19.30;;;7.40;;
27225;SDS011;14732;51.074;3.788;2023-10-08T10:33:02;16.90;;;7.13;;
27225;SDS011;14732;51.074;3.788;2023-10-08T10:35:31;17.65;;;7.50;;
27225;SDS011;14732;51.074;3.788;2023-10-08T10:37:58;19.90;;;7.15;;
27225;SDS011;14732;51.074;3.788;2023-10-08T10:40:28;15.88;;;6.90;;
27225;SDS011;14732;51.074;3.788;2023-10-08T10:43:04;15.45;;;7.15;;
27225;SDS011;14732;51.074;3.788;2023-10-08T10:45:31;16.95;;;7.47;;
27225;SDS011;14732;51.074;3.788;2023-10-08T10:48:12;17.23;;;7.05;;
27225;SDS011;14732;51.074;3.788;2023-10-08T10:50:45;15.75;;;7.32;;
27225;SDS011;14732;51.074;3.788;2023-10-08T10:53:36;16.42;;;6.45;;
27225;SDS011;14732;51.074;3.788;2023-10-08T10:58:49;16.17;;;6.63;;
27225;SDS011;14732;51.074;3.788;2023-10-08T11:01:22;17.95;;;7.18;;
27225;SDS011;14732;51.074;3.788;2023-10-08T11:04:09;17.58;;;6.93;;
27225;SDS011;14732;51.074;3.788;2023-10-08T11:06:41;18.00;;;6.57;;
27225;SDS011;14732;51.074;3.788;2023-10-08T11:09:10;20.08;;;5.85;;
27225;SDS011;14732;51.074;3.788;2023-10-08T11:11:41;18.55;;;6.82;;
27225;SDS011;14732;51.074;3.788;2023-10-08T11:14:11;13.10;;;5.63;;
27225;SDS011;14732;51.074;3.788;2023-10-08T11:16:44;17.40;;;6.57;;
27225;SDS011;14732;51.074;3.788;2023-10-08T11:19:13;16.65;;;6.13;;
27225;SDS011;14732;51.074;3.788;2023-10-08T11:24:34;13.40;;;5.53;;
27225;SDS011;14732;51.074;3.788;2023-10-08T11:27:02;13.43;;;5.55;;
27225;SDS011;14732;51.074;3.788;2023-10-08T11:29:43;14.63;;;6.07;;
27225;SDS011;14732;51.074;3.788;2023-10-08T11:32:11;11.20;;;5.18;;
27225;SDS011;14732;51.074;3.788;2023-10-08T11:34:38;17.05;;;6.38;;
27225;SDS011;14732;51.074;3.788;2023-10-08T11:37:07;13.95;;;6.10;;
27225;SDS011;14732;51.074;3.788;2023-10-08T11:39:45;14.75;;;6.18;;
27225;SDS011;14732;51.074;3.788;2023-10-08T11:42:11;12.82;;;5.93;;
27225;SDS011;14732;51.074;3.788;2023-10-08T11:44:56;15.30;;;5.10;;
27225;SDS011;14732;51.074;3.788;2023-10-08T11:47:24;29.10;;;6.32;;
27225;SDS011;14732;51.074;3.788;2023-10-08T11:50:01;13.00;;;5.70;;
27225;SDS011;14732;51.074;3.788;2023-10-08T11:52:36;11.65;;;5.57;;
27225;SDS011;14732;51.074;3.788;2023-10-08T11:55:07;12.07;;;6.00;;
27225;SDS011;14732;51.074;3.788;2023-10-08T11:57:34;12.00;;;5.57;;
27225;SDS011;14732;51.074;3.788;2023-10-08T12:00:10;12.93;;;5.60;;
27225;SDS011;14732;51.074;3.788;2023-10-08T12:02:50;12.85;;;5.72;;
27225;SDS011;14732;51.074;3.788;2023-10-08T12:05:19;11.25;;;5.45;;
27225;SDS011;14732;51.074;3.788;2023-10-08T12:07:48;16.58;;;6.68;;
27225;SDS011;14732;51.074;3.788;2023-10-08T12:10:23;14.82;;;6.35;;
27225;SDS011;14732;51.074;3.788;2023-10-08T12:12:49;13.45;;;6.03;;
27225;SDS011;14732;51.074;3.788;2023-10-08T12:15:22;11.68;;;5.55;;
27225;SDS011;14732;51.074;3.788;2023-10-08T12:17:59;9.55;;;5.35;;
27225;SDS011;14732;51.074;3.788;2023-10-08T12:20:40;12.05;;;5.43;;
27225;SDS011;14732;51.074;3.788;2023-10-08T12:23:10;15.63;;;5.88;;
27225;SDS011;14732;51.074;3.788;2023-10-08T12:25:36;17.40;;;5.45;;
27225;SDS011;14732;51.074;3.788;2023-10-08T12:28:03;9.18;;;5.38;;
27225;SDS011;14732;51.074;3.788;2023-10-08T12:30:32;10.15;;;5.22;;
27225;SDS011;14732;51.074;3.788;2023-10-08T12:33:06;13.32;;;5.38;;
27225;SDS011;14732;51.074;3.788;2023-10-08T12:35:35;9.43;;;5.32;;
27225;SDS011;14732;51.074;3.788;2023-10-08T12:38:02;13.77;;;5.80;;
27225;SDS011;14732;51.074;3.788;2023-10-08T12:40:30;14.40;;;5.47;;
27225;SDS011;14732;51.074;3.788;2023-10-08T12:43:07;12.40;;;4.75;;
27225;SDS011;14732;51.074;3.788;2023-10-08T12:45:33;11.55;;;5.28;;
27225;SDS011;14732;51.074;3.788;2023-10-08T12:48:02;10.20;;;5.00;;
27225;SDS011;14732;51.074;3.788;2023-10-08T12:50:28;14.80;;;5.40;;
27225;SDS011;14732;51.074;3.788;2023-10-08T12:53:10;10.48;;;4.90;;
27225;SDS011;14732;51.074;3.788;2023-10-08T12:55:39;11.32;;;5.07;;
27225;SDS011;14732;51.074;3.788;2023-10-08T12:58:08;15.20;;;5.88;;
27225;SDS011;14732;51.074;3.788;2023-10-08T13:00:37;15.88;;;6.10;;
27225;SDS011;14732;51.074;3.788;2023-10-08T13:03:03;14.50;;;5.88;;
27225;SDS011;14732;51.074;3.788;2023-10-08T13:05:32;13.77;;;5.78;;
27225;SDS011;14732;51.074;3.788;2023-10-08T13:07:59;13.02;;;5.28;;
27225;SDS011;14732;51.074;3.788;2023-10-08T13:10:35;13.63;;;5.20;;
27225;SDS011;14732;51.074;3.788;2023-10-08T13:13:03;11.80;;;5.50;;
27225;SDS011;14732;51.074;3.788;2023-10-08T13:15:29;15.27;;;5.30;;
27225;SDS011;14732;51.074;3.788;2023-10-08T13:18:00;15.48;;;5.38;;
27225;SDS011;14732;51.074;3.788;2023-10-08T13:20:28;11.90;;;5.43;;
27225;SDS011;14732;51.074;3.788;2023-10-08T13:22:58;9.43;;;5.28;;
27225;SDS011;14732;51.074;3.788;2023-10-08T13:25:27;10.07;;;5.13;;
27225;SDS011;14732;51.074;3.788;2023-10-08T13:27:55;13.25;;;4.95;;
27225;SDS011;14732;51.074;3.788;2023-10-08T13:30:21;9.27;;;5.05;;
27225;SDS011;14732;51.074;3.788;2023-10-08T13:32:48;8.23;;;4.72;;
27225;SDS011;14732;51.074;3.788;2023-10-08T13:35:14;12.75;;;5.03;;
27225;SDS011;14732;51.074;3.788;2023-10-08T13:37:39;10.32;;;4.85;;
27225;SDS011;14732;51.074;3.788;2023-10-08T13:40:05;10.02;;;4.85;;
27225;SDS011;14732;51.074;3.788;2023-10-08T13:42:31;10.30;;;4.97;;
27225;SDS011;14732;51.074;3.788;2023-10-08T13:44:57;11.32;;;4.90;;
27225;SDS011;14732;51.074;3.788;2023-10-08T13:47:24;12.00;;;5.50;;
27225;SDS011;14732;51.074;3.788;2023-10-08T13:49:51;12.02;;;5.20;;
27225;SDS011;14732;51.074;3.788;2023-10-08T13:52:18;14.45;;;5.07;;
27225;SDS011;14732;51.074;3.788;2023-10-08T13:54:51;12.45;;;4.82;;
27225;SDS011;14732;51.074;3.788;2023-10-08T13:57:19;11.65;;;5.22;;
27225;SDS011;14732;51.074;3.788;2023-10-08T13:59:45;9.68;;;4.63;;
27225;SDS011;14732;51.074;3.788;2023-10-08T14:02:12;13.88;;;5.28;;
27225;SDS011;14732;51.074;3.788;2023-10-08T14:04:43;11.13;;;4.73;;
27225;SDS011;14732;51.074;3.788;2023-10-08T14:07:10;9.88;;;5.15;;
27225;SDS011;14732;51.074;3.788;2023-10-08T14:09:42;13.23;;;5.38;;
27225;SDS011;14732;51.074;3.788;2023-10-08T14:12:10;12.82;;;5.60;;
27225;SDS011;14732;51.074;3.788;2023-10-08T14:14:38;8.65;;;5.03;;
27225;SDS011;14732;51.074;3.788;2023-10-08T14:17:11;10.95;;;5.03;;
27225;SDS011;14732;51.074;3.788;2023-10-08T14:19:43;11.57;;;5.10;;
27225;SDS011;14732;51.074;3.788;2023-10-08T14:22:12;15.00;;;5.65;;
27225;SDS011;14732;51.074;3.788;2023-10-08T14:24:44;13.85;;;5.30;;
27225;SDS011;14732;51.074;3.788;2023-10-08T14:27:11;10.50;;;5.45;;
27225;SDS011;14732;51.074;3.788;2023-10-08T14:29:37;11.50;;;5.10;;
27225;SDS011;14732;51.074;3.788;2023-10-08T14:32:09;11.02;;;4.85;;
27225;SDS011;14732;51.074;3.788;2023-10-08T14:34:35;12.27;;;5.32;;
27225;SDS011;14732;51.074;3.788;2023-10-08T14:37:19;8.60;;;4.80;;
27225;SDS011;14732;51.074;3.788;2023-10-08T14:40:04;15.38;;;5.32;;
27225;SDS011;14732;51.074;3.788;2023-10-08T14:42:49;12.40;;;5.47;;
27225;SDS011;14732;51.074;3.788;2023-10-08T14:45:30;10.80;;;5.60;;
27225;SDS011;14732;51.074;3.788;2023-10-08T14:48:00;13.38;;;5.60;;
27225;SDS011;14732;51.074;3.788;2023-10-08T14:50:26;12.55;;;4.90;;
27225;SDS011;14732;51.074;3.788;2023-10-08T14:52:53;9.48;;;5.05;;
27225;SDS011;14732;51.074;3.788;2023-10-08T14:55:20;12.15;;;5.28;;
27225;SDS011;14732;51.074;3.788;2023-10-08T14:57:51;11.30;;;5.68;;
27225;SDS011;14732;51.074;3.788;2023-10-08T15:02:50;9.65;;;5.10;;
27225;SDS011;14732;51.074;3.788;2023-10-08T15:05:27;12.45;;;5.60;;
27225;SDS011;14732;51.074;3.788;2023-10-08T15:07:53;14.10;;;5.45;;
27225;SDS011;14732;51.074;3.788;2023-10-08T15:10:20;9.13;;;5.20;;
27225;SDS011;14732;51.074;3.788;2023-10-08T15:12:46;13.48;;;4.95;;
27225;SDS011;14732;51.074;3.788;2023-10-08T15:15:12;12.65;;;5.47;;
27225;SDS011;14732;51.074;3.788;2023-10-08T15:17:42;11.07;;;5.20;;
27225;SDS011;14732;51.074;3.788;2023-10-08T15:20:09;9.10;;;4.93;;
27225;SDS011;14732;51.074;3.788;2023-10-08T15:22:45;11.73;;;5.32;;
27225;SDS011;14732;51.074;3.788;2023-10-08T15:25:12;11.25;;;5.00;;
27225;SDS011;14732;51.074;3.788;2023-10-08T15:27:40;11.82;;;5.18;;
27225;SDS011;14732;51.074;3.788;2023-10-08T15:30:07;7.82;;;5.20;;
27225;SDS011;14732;51.074;3.788;2023-10-08T15:32:37;11.50;;;5.53;;
27225;SDS011;14732;51.074;3.788;2023-10-08T15:35:05;10.32;;;5.43;;
27225;SDS011;14732;51.074;3.788;2023-10-08T15:37:34;8.55;;;4.85;;
27225;SDS011;14732;51.074;3.788;2023-10-08T15:40:04;8.18;;;4.63;;
27225;SDS011;14732;51.074;3.788;2023-10-08T15:42:33;7.10;;;4.68;;
27225;SDS011;14732;51.074;3.788;2023-10-08T15:45:00;9.85;;;4.93;;
27225;SDS011;14732;51.074;3.788;2023-10-08T15:47:27;11.77;;;4.85;;
27225;SDS011;14732;51.074;3.788;2023-10-08T15:49:54;12.57;;;5.10;;
27225;SDS011;14732;51.074;3.788;2023-10-08T15:52:20;7.78;;;4.20;;
27225;SDS011;14732;51.074;3.788;2023-10-08T15:54:47;11.75;;;4.65;;
27225;SDS011;14732;51.074;3.788;2023-10-08T15:57:14;10.57;;;4.70;;
27225;SDS011;14732;51.074;3.788;2023-10-08T15:59:40;10.38;;;5.35;;
27225;SDS011;14732;51.074;3.788;2023-10-08T16:02:06;9.30;;;4.95;;
27225;SDS011;14732;51.074;3.788;2023-10-08T16:04:31;8.95;;;4.20;;
27225;SDS011;14732;51.074;3.788;2023-10-08T16:07:00;10.35;;;4.93;;
27225;SDS011;14732;51.074;3.788;2023-10-08T16:09:26;16.00;;;5.40;;
27225;SDS011;14732;51.074;3.788;2023-10-08T16:11:53;7.47;;;4.05;;
27225;SDS011;14732;51.074;3.788;2023-10-08T16:14:19;8.55;;;4.80;;
27225;SDS011;14732;51.074;3.788;2023-10-08T16:16:45;9.32;;;4.65;;
27225;SDS011;14732;51.074;3.788;2023-10-08T16:19:15;8.02;;;4.47;;
27225;SDS011;14732;51.074;3.788;2023-10-08T16:21:41;11.45;;;4.75;;
27225;SDS011;14732;51.074;3.788;2023-10-08T16:24:09;8.38;;;4.25;;
27225;SDS011;14732;51.074;3.788;2023-10-08T16:26:38;6.70;;;4.30;;
27225;SDS011;14732;51.074;3.788;2023-10-08T16:29:04;8.75;;;4.50;;
27225;SDS011;14732;51.074;3.788;2023-10-08T16:31:30;10.57;;;4.95;;
27225;SDS011;14732;51.074;3.788;2023-10-08T16:33:59;8.40;;;3.92;;
27225;SDS011;14732;51.074;3.788;2023-10-08T16:36:24;6.70;;;4.22;;
27225;SDS011;14732;51.074;3.788;2023-10-08T16:38:50;8.65;;;4.65;;
27225;SDS011;14732;51.074;3.788;2023-10-08T16:41:18;9.70;;;4.38;;
27225;SDS011;14732;51.074;3.788;2023-10-08T16:43:44;6.97;;;4.13;;
27225;SDS011;14732;51.074;3.788;2023-10-08T16:46:10;7.68;;;4.28;;
27225;SDS011;14732;51.074;3.788;2023-10-08T16:48:36;9.23;;;4.38;;
27225;SDS011;14732;51.074;3.788;2023-10-08T16:51:02;9.80;;;4.57;;
27225;SDS011;14732;51.074;3.788;2023-10-08T16:53:28;8.73;;;4.97;;
27225;SDS011;14732;51.074;3.788;2023-10-08T16:55:54;10.15;;;5.13;;
27225;SDS011;14732;51.074;3.788;2023-10-08T16:58:20;10.18;;;4.93;;
27225;SDS011;14732;51.074;3.788;2023-10-08T17:00:46;9.05;;;4.88;;
27225;SDS011;14732;51.074;3.788;2023-10-08T17:03:12;10.63;;;5.05;;
27225;SDS011;14732;51.074;3.788;2023-10-08T17:05:38;8.45;;;5.13;;
27225;SDS011;14732;51.074;3.788;2023-10-08T17:08:05;11.30;;;4.80;;
27225;SDS011;14732;51.074;3.788;2023-10-08T17:10:30;17.48;;;5.70;;
27225;SDS011;14732;51.074;3.788;2023-10-08T17:12:57;13.45;;;5.00;;
27225;SDS011;14732;51.074;3.788;2023-10-08T17:15:23;14.40;;;5.18;;
27225;SDS011;14732;51.074;3.788;2023-10-08T17:17:50;12.02;;;5.25;;
27225;SDS011;14732;51.074;3.788;2023-10-08T17:20:15;15.05;;;5.60;;
27225;SDS011;14732;51.074;3.788;2023-10-08T17:22:48;41.55;;;6.32;;
27225;SDS011;14732;51.074;3.788;2023-10-08T17:25:13;32.72;;;6.35;;
27225;SDS011;14732;51.074;3.788;2023-10-08T17:27:40;21.92;;;5.75;;
27225;SDS011;14732;51.074;3.788;2023-10-08T17:30:12;16.30;;;5.70;;
27225;SDS011;14732;51.074;3.788;2023-10-08T17:32:44;14.68;;;5.57;;
27225;SDS011;14732;51.074;3.788;2023-10-08T17:35:11;27.20;;;6.60;;
27225;SDS011;14732;51.074;3.788;2023-10-08T17:37:36;23.05;;;5.65;;
27225;SDS011;14732;51.074;3.788;2023-10-08T17:40:05;17.02;;;5.97;;
27225;SDS011;14732;51.074;3.788;2023-10-08T17:42:41;12.75;;;6.03;;
27225;SDS011;14732;51.074;3.788;2023-10-08T17:45:07;87.82;;;10.38;;
27225;SDS011;14732;51.074;3.788;2023-10-08T17:47:35;34.33;;;7.63;;
27225;SDS011;14732;51.074;3.788;2023-10-08T17:50:01;34.08;;;7.07;;
27225;SDS011;14732;51.074;3.788;2023-10-08T17:52:28;25.65;;;6.93;;
27225;SDS011;14732;51.074;3.788;2023-10-08T17:54:53;14.15;;;6.18;;
27225;SDS011;14732;51.074;3.788;2023-10-08T17:57:21;11.40;;;6.60;;
27225;SDS011;14732;51.074;3.788;2023-10-08T17:59:46;10.95;;;5.60;;
27225;SDS011;14732;51.074;3.788;2023-10-08T18:02:13;12.40;;;6.40;;
27225;SDS011;14732;51.074;3.788;2023-10-08T18:04:41;9.63;;;5.60;;
27225;SDS011;14732;51.074;3.788;2023-10-08T18:07:07;13.80;;;6.20;;
27225;SDS011;14732;51.074;3.788;2023-10-08T18:09:33;12.05;;;6.43;;
27225;SDS011;14732;51.074;3.788;2023-10-08T18:11:59;9.20;;;6.07;;
27225;SDS011;14732;51.074;3.788;2023-10-08T18:14:25;9.90;;;6.47;;
27225;SDS011;14732;51.074;3.788;2023-10-08T18:16:54;10.75;;;5.68;;
27225;SDS011;14732;51.074;3.788;2023-10-08T18:19:21;16.00;;;6.00;;
27225;SDS011;14732;51.074;3.788;2023-10-08T18:21:48;9.20;;;5.88;;
27225;SDS011;14732;51.074;3.788;2023-10-08T18:24:15;11.20;;;5.88;;
27225;SDS011;14732;51.074;3.788;2023-10-08T18:26:42;10.68;;;5.82;;
27225;SDS011;14732;51.074;3.788;2023-10-08T18:29:09;12.20;;;6.28;;
27225;SDS011;14732;51.074;3.788;2023-10-08T18:31:40;12.27;;;5.82;;
27225;SDS011;14732;51.074;3.788;2023-10-08T18:34:06;11.25;;;6.30;;
27225;SDS011;14732;51.074;3.788;2023-10-08T18:36:32;13.60;;;6.40;;
27225;SDS011;14732;51.074;3.788;2023-10-08T18:39:00;9.50;;;5.78;;
27225;SDS011;14732;51.074;3.788;2023-10-08T18:41:27;10.32;;;5.82;;
27225;SDS011;14732;51.074;3.788;2023-10-08T18:43:53;8.00;;;5.60;;
27225;SDS011;14732;51.074;3.788;2023-10-08T18:46:18;12.13;;;6.10;;
27225;SDS011;14732;51.074;3.788;2023-10-08T18:48:45;10.55;;;6.55;;
27225;SDS011;14732;51.074;3.788;2023-10-08T18:51:12;10.60;;;5.82;;
27225;SDS011;14732;51.074;3.788;2023-10-08T18:53:40;9.85;;;6.38;;
27225;SDS011;14732;51.074;3.788;2023-10-08T18:56:08;12.93;;;6.72;;
27225;SDS011;14732;51.074;3.788;2023-10-08T18:58:42;16.92;;;7.55;;
27225;SDS011;14732;51.074;3.788;2023-10-08T19:01:09;14.57;;;7.53;;
27225;SDS011;14732;51.074;3.788;2023-10-08T19:03:37;12.93;;;7.30;;
27225;SDS011;14732;51.074;3.788;2023-10-08T19:06:05;11.00;;;6.88;;
27225;SDS011;14732;51.074;3.788;2023-10-08T19:08:34;16.13;;;7.03;;
27225;SDS011;14732;51.074;3.788;2023-10-08T19:11:01;11.63;;;6.43;;
27225;SDS011;14732;51.074;3.788;2023-10-08T19:13:27;12.40;;;6.43;;
27225;SDS011;14732;51.074;3.788;2023-10-08T19:15:53;13.77;;;7.82;;
27225;SDS011;14732;51.074;3.788;2023-10-08T19:18:20;12.75;;;8.25;;
27225;SDS011;14732;51.074;3.788;2023-10-08T19:20:47;15.38;;;8.63;;
27225;SDS011;14732;51.074;3.788;2023-10-08T19:23:16;15.32;;;8.80;;
27225;SDS011;14732;51.074;3.788;2023-10-08T19:25:48;67.07;;;32.67;;
27225;SDS011;14732;51.074;3.788;2023-10-08T19:28:17;28.42;;;14.70;;
27225;SDS011;14732;51.074;3.788;2023-10-08T19:30:45;24.58;;;13.60;;
27225;SDS011;14732;51.074;3.788;2023-10-08T19:33:13;19.52;;;11.73;;
27225;SDS011;14732;51.074;3.788;2023-10-08T19:35:40;16.17;;;9.70;;
27225;SDS011;14732;51.074;3.788;2023-10-08T19:38:06;21.30;;;10.18;;
27225;SDS011;14732;51.074;3.788;2023-10-08T19:40:35;15.02;;;8.15;;
27225;SDS011;14732;51.074;3.788;2023-10-08T19:43:01;17.08;;;8.07;;
27225;SDS011;14732;51.074;3.788;2023-10-08T19:45:33;13.18;;;7.25;;
27225;SDS011;14732;51.074;3.788;2023-10-08T19:48:03;14.70;;;7.60;;
27225;SDS011;14732;51.074;3.788;2023-10-08T19:50:36;13.85;;;7.55;;
27225;SDS011;14732;51.074;3.788;2023-10-08T19:53:09;14.57;;;8.25;;
27225;SDS011;14732;51.074;3.788;2023-10-08T19:55:43;14.60;;;7.95;;
27225;SDS011;14732;51.074;3.788;2023-10-08T19:58:15;13.00;;;8.20;;
27225;SDS011;14732;51.074;3.788;2023-10-08T20:00:45;16.55;;;7.57;;
27225;SDS011;14732;51.074;3.788;2023-10-08T20:03:12;13.77;;;7.68;;
27225;SDS011;14732;51.074;3.788;2023-10-08T20:05:41;14.02;;;7.80;;
27225;SDS011;14732;51.074;3.788;2023-10-08T20:08:07;15.27;;;7.28;;
27225;SDS011;14732;51.074;3.788;2023-10-08T20:10:36;13.45;;;7.75;;
27225;SDS011;14732;51.074;3.788;2023-10-08T20:13:03;11.48;;;7.72;;
27225;SDS011;14732;51.074;3.788;2023-10-08T20:15:29;13.43;;;8.23;;
27225;SDS011;14732;51.074;3.788;2023-10-08T20:17:56;13.93;;;7.95;;
27225;SDS011;14732;51.074;3.788;2023-10-08T20:20:22;14.75;;;8.00;;
27225;SDS011;14732;51.074;3.788;2023-10-08T20:22:52;13.13;;;8.00;;
27225;SDS011;14732;51.074;3.788;2023-10-08T20:25:20;14.23;;;8.30;;
27225;SDS011;14732;51.074;3.788;2023-10-08T20:27:57;15.35;;;7.93;;
27225;SDS011;14732;51.074;3.788;2023-10-08T20:30:22;15.02;;;8.23;;
27225;SDS011;14732;51.074;3.788;2023-10-08T20:32:49;12.80;;;7.38;;
27225;SDS011;14732;51.074;3.788;2023-10-08T20:35:18;13.18;;;7.78;;
27225;SDS011;14732;51.074;3.788;2023-10-08T20:37:44;12.60;;;7.65;;
27225;SDS011;14732;51.074;3.788;2023-10-08T20:42:42;13.57;;;7.47;;
27225;SDS011;14732;51.074;3.788;2023-10-08T20:45:09;12.75;;;7.82;;
27225;SDS011;14732;51.074;3.788;2023-10-08T20:47:38;15.13;;;8.05;;